sensor_id;sensor_type;location;lat;lon;timestamp;temperature;humidity
5675;DHT22;2860;54.284;10.158;2023-07-16T00:00:25;18.00;99.90
5675;DHT22;2860;54.284;10.158;2023-07-16T00:02:51;17.90;99.90
5675;DHT22;2860;54.284;10.158;2023-07-16T00:05:16;17.90;99.90
5675;DHT22;2860;54.284;10.158;2023-07-16T00:07:42;17.90;99.90
5675;DHT22;2860;54.284;10.158;2023-07-16T00:10:08;17.90;99.90
5675;DHT22;2860;54.284;10.158;2023-07-16T00:12:34;17.90;99.90
5675;DHT22;2860;54.284;10.158;2023-07-16T00:14:59;17.80;99.90
5675;DHT22;2860;54.284;10.158;2023-07-16T00:17:25;17.80;99.90
5675;DHT22;2860;54.284;10.158;2023-07-16T00:19:50;17.80;99.90
5675;DHT22;2860;54.284;10.158;2023-07-16T00:22:16;17.80;99.90
5675;DHT22;2860;54.284;10.158;2023-07-16T00:24:41;17.80;99.90
5675;DHT22;2860;54.284;10.158;2023-07-16T00:27:07;17.80;99.90
5675;DHT22;2860;54.284;10.158;2023-07-16T00:29:32;17.80;99.90
5675;DHT22;2860;54.284;10.158;2023-07-16T00:31:58;17.70;99.90
5675;DHT22;2860;54.284;10.158;2023-07-16T00:34:23;17.70;99.90
5675;DHT22;2860;54.284;10.158;2023-07-16T00:36:49;17.60;99.90
5675;DHT22;2860;54.284;10.158;2023-07-16T00:39:14;17.60;99.90
5675;DHT22;2860;54.284;10.158;2023-07-16T00:41:40;17.60;99.90
5675;DHT22;2860;54.284;10.158;2023-07-16T00:44:05;17.60;99.90
5675;DHT22;2860;54.284;10.158;2023-07-16T00:46:31;17.60;99.90
5675;DHT22;2860;54.284;10.158;2023-07-16T00:48:56;17.50;99.90
5675;DHT22;2860;54.284;10.158;2023-07-16T00:51:24;17.50;99.90
5675;DHT22;2860;54.284;10.158;2023-07-16T00:53:50;17.50;99.90
5675;DHT22;2860;54.284;10.158;2023-07-16T00:56:17;17.50;99.90
5675;DHT22;2860;54.284;10.158;2023-07-16T00:58:43;17.50;99.90
5675;DHT22;2860;54.284;10.158;2023-07-16T01:01:09;17.50;99.90
5675;DHT22;2860;54.284;10.158;2023-07-16T01:03:34;17.50;99.90
5675;DHT22;2860;54.284;10.158;2023-07-16T01:08:56;17.50;99.90
5675;DHT22;2860;54.284;10.158;2023-07-16T01:11:23;17.50;99.90
5675;DHT22;2860;54.284;10.158;2023-07-16T01:13:50;17.50;99.90
5675;DHT22;2860;54.284;10.158;2023-07-16T01:16:23;17.40;99.90
5675;DHT22;2860;54.284;10.158;2023-07-16T01:18:49;17.40;99.90
5675;DHT22;2860;54.284;10.158;2023-07-16T01:21:16;17.40;99.90
5675;DHT22;2860;54.284;10.158;2023-07-16T01:26:51;17.30;99.90
5675;DHT22;2860;54.284;10.158;2023-07-16T01:29:31;17.30;99.90
5675;DHT22;2860;54.284;10.158;2023-07-16T01:32:00;17.30;99.90
5675;DHT22;2860;54.284;10.158;2023-07-16T01:34:28;17.30;99.90
5675;DHT22;2860;54.284;10.158;2023-07-16T01:36:55;17.20;99.90
5675;DHT22;2860;54.284;10.158;2023-07-16T01:39:21;17.20;99.90
5675;DHT22;2860;54.284;10.158;2023-07-16T01:41:47;17.30;99.90
5675;DHT22;2860;54.284;10.158;2023-07-16T01:44:12;17.20;99.90
5675;DHT22;2860;54.284;10.158;2023-07-16T01:46:38;17.20;99.90
5675;DHT22;2860;54.284;10.158;2023-07-16T01:49:03;17.20;99.90
5675;DHT22;2860;54.284;10.158;2023-07-16T01:51:29;17.20;99.90
5675;DHT22;2860;54.284;10.158;2023-07-16T01:53:54;17.20;99.90
5675;DHT22;2860;54.284;10.158;2023-07-16T01:56:20;17.10;99.90
5675;DHT22;2860;54.284;10.158;2023-07-16T01:58:45;17.10;99.90
5675;DHT22;2860;54.284;10.158;2023-07-16T02:01:12;17.10;99.90
5675;DHT22;2860;54.284;10.158;2023-07-16T02:03:37;17.10;99.90
5675;DHT22;2860;54.284;10.158;2023-07-16T02:06:03;17.10;99.90
5675;DHT22;2860;54.284;10.158;2023-07-16T02:08:28;17.10;99.90
5675;DHT22;2860;54.284;10.158;2023-07-16T02:10:54;17.10;99.90
5675;DHT22;2860;54.284;10.158;2023-07-16T02:13:19;17.00;99.90
5675;DHT22;2860;54.284;10.158;2023-07-16T02:15:45;17.00;99.90
5675;DHT22;2860;54.284;10.158;2023-07-16T02:18:10;17.00;99.90
5675;DHT22;2860;54.284;10.158;2023-07-16T02:20:36;17.00;99.90
5675;DHT22;2860;54.284;10.158;2023-07-16T02:23:01;17.00;99.90
5675;DHT22;2860;54.284;10.158;2023-07-16T02:25:27;17.00;99.90
5675;DHT22;2860;54.284;10.158;2023-07-16T02:27:52;17.00;99.90
5675;DHT22;2860;54.284;10.158;2023-07-16T02:30:18;17.00;99.90
5675;DHT22;2860;54.284;10.158;2023-07-16T02:32:44;16.90;99.90
5675;DHT22;2860;54.284;10.158;2023-07-16T02:35:10;16.90;99.90
5675;DHT22;2860;54.284;10.158;2023-07-16T02:37:35;16.90;99.90
5675;DHT22;2860;54.284;10.158;2023-07-16T02:40:01;16.80;99.90
5675;DHT22;2860;54.284;10.158;2023-07-16T02:42:27;16.80;99.90
5675;DHT22;2860;54.284;10.158;2023-07-16T02:44:52;16.80;99.90
5675;DHT22;2860;54.284;10.158;2023-07-16T02:47:18;16.80;99.90
5675;DHT22;2860;54.284;10.158;2023-07-16T02:49:43;16.70;99.90
5675;DHT22;2860;54.284;10.158;2023-07-16T02:52:09;16.70;99.90
5675;DHT22;2860;54.284;10.158;2023-07-16T02:54:37;16.60;99.90
5675;DHT22;2860;54.284;10.158;2023-07-16T02:57:03;16.50;99.90
5675;DHT22;2860;54.284;10.158;2023-07-16T02:59:29;16.50;99.90
5675;DHT22;2860;54.284;10.158;2023-07-16T03:01:54;16.50;99.90
5675;DHT22;2860;54.284;10.158;2023-07-16T03:04:20;16.40;99.90
5675;DHT22;2860;54.284;10.158;2023-07-16T03:06:45;16.40;99.90
5675;DHT22;2860;54.284;10.158;2023-07-16T03:09:11;16.30;99.90
5675;DHT22;2860;54.284;10.158;2023-07-16T03:11:37;16.30;99.90
5675;DHT22;2860;54.284;10.158;2023-07-16T03:14:02;16.20;99.90
5675;DHT22;2860;54.284;10.158;2023-07-16T03:16:28;16.20;99.90
5675;DHT22;2860;54.284;10.158;2023-07-16T03:18:53;16.20;99.90
5675;DHT22;2860;54.284;10.158;2023-07-16T03:21:19;16.20;99.90
5675;DHT22;2860;54.284;10.158;2023-07-16T03:23:45;16.20;99.90
5675;DHT22;2860;54.284;10.158;2023-07-16T03:26:10;16.20;99.90
5675;DHT22;2860;54.284;10.158;2023-07-16T03:28:36;16.20;99.90
5675;DHT22;2860;54.284;10.158;2023-07-16T03:31:01;16.20;99.90
5675;DHT22;2860;54.284;10.158;2023-07-16T03:33:27;16.20;99.90
5675;DHT22;2860;54.284;10.158;2023-07-16T03:35:52;16.20;99.90
5675;DHT22;2860;54.284;10.158;2023-07-16T03:38:17;16.20;99.90
5675;DHT22;2860;54.284;10.158;2023-07-16T03:40:49;16.30;99.90
5675;DHT22;2860;54.284;10.158;2023-07-16T03:43:15;16.30;99.90
5675;DHT22;2860;54.284;10.158;2023-07-16T03:45:42;16.30;99.90
5675;DHT22;2860;54.284;10.158;2023-07-16T03:48:07;16.30;99.90
5675;DHT22;2860;54.284;10.158;2023-07-16T03:50:34;16.30;99.90
5675;DHT22;2860;54.284;10.158;2023-07-16T03:52:59;16.20;99.90
5675;DHT22;2860;54.284;10.158;2023-07-16T03:55:25;16.20;99.90
5675;DHT22;2860;54.284;10.158;2023-07-16T03:57:51;16.20;99.90
5675;DHT22;2860;54.284;10.158;2023-07-16T04:00:17;16.20;99.90
5675;DHT22;2860;54.284;10.158;2023-07-16T04:02:42;16.20;99.90
5675;DHT22;2860;54.284;10.158;2023-07-16T04:05:08;16.20;99.90
5675;DHT22;2860;54.284;10.158;2023-07-16T04:07:34;16.20;99.90
5675;DHT22;2860;54.284;10.158;2023-07-16T04:09:59;16.10;99.90
5675;DHT22;2860;54.284;10.158;2023-07-16T04:12:25;16.10;99.90
5675;DHT22;2860;54.284;10.158;2023-07-16T04:14:55;16.10;99.90
5675;DHT22;2860;54.284;10.158;2023-07-16T04:17:21;16.10;99.90
5675;DHT22;2860;54.284;10.158;2023-07-16T04:19:46;16.00;99.90
5675;DHT22;2860;54.284;10.158;2023-07-16T04:22:12;15.90;99.90
5675;DHT22;2860;54.284;10.158;2023-07-16T04:24:37;15.90;99.90
5675;DHT22;2860;54.284;10.158;2023-07-16T04:27:03;15.90;99.90
5675;DHT22;2860;54.284;10.158;2023-07-16T04:29:28;15.90;99.90
5675;DHT22;2860;54.284;10.158;2023-07-16T04:31:54;15.90;99.90
5675;DHT22;2860;54.284;10.158;2023-07-16T04:34:19;16.00;99.90
5675;DHT22;2860;54.284;10.158;2023-07-16T04:36:45;16.00;99.90
5675;DHT22;2860;54.284;10.158;2023-07-16T04:39:10;16.00;99.90
5675;DHT22;2860;54.284;10.158;2023-07-16T04:41:36;16.00;99.90
5675;DHT22;2860;54.284;10.158;2023-07-16T04:44:02;16.10;99.90
5675;DHT22;2860;54.284;10.158;2023-07-16T04:46:27;16.10;99.90
5675;DHT22;2860;54.284;10.158;2023-07-16T04:48:53;16.20;99.90
5675;DHT22;2860;54.284;10.158;2023-07-16T04:51:19;16.30;99.90
5675;DHT22;2860;54.284;10.158;2023-07-16T04:53:44;16.40;99.90
5675;DHT22;2860;54.284;10.158;2023-07-16T04:56:13;16.50;99.90
5675;DHT22;2860;54.284;10.158;2023-07-16T04:58:39;16.60;99.90
5675;DHT22;2860;54.284;10.158;2023-07-16T05:01:05;16.70;99.90
5675;DHT22;2860;54.284;10.158;2023-07-16T05:03:30;16.80;99.90
5675;DHT22;2860;54.284;10.158;2023-07-16T05:05:56;17.30;99.90
5675;DHT22;2860;54.284;10.158;2023-07-16T05:08:21;18.10;99.90
5675;DHT22;2860;54.284;10.158;2023-07-16T05:10:47;19.10;99.90
5675;DHT22;2860;54.284;10.158;2023-07-16T05:13:13;20.20;99.90
5675;DHT22;2860;54.284;10.158;2023-07-16T05:15:38;21.30;99.90
5675;DHT22;2860;54.284;10.158;2023-07-16T05:18:04;22.20;99.90
5675;DHT22;2860;54.284;10.158;2023-07-16T05:20:29;22.70;99.90
5675;DHT22;2860;54.284;10.158;2023-07-16T05:22:55;22.50;99.90
5675;DHT22;2860;54.284;10.158;2023-07-16T05:25:21;22.00;99.90
5675;DHT22;2860;54.284;10.158;2023-07-16T05:27:46;21.60;99.90
5675;DHT22;2860;54.284;10.158;2023-07-16T05:30:12;21.60;99.90
5675;DHT22;2860;54.284;10.158;2023-07-16T05:32:37;22.10;99.90
5675;DHT22;2860;54.284;10.158;2023-07-16T05:35:03;22.40;99.90
5675;DHT22;2860;54.284;10.158;2023-07-16T05:37:29;22.70;99.90
5675;DHT22;2860;54.284;10.158;2023-07-16T05:39:54;22.80;99.90
5675;DHT22;2860;54.284;10.158;2023-07-16T05:42:20;23.00;99.90
5675;DHT22;2860;54.284;10.158;2023-07-16T05:44:47;23.20;99.90
5675;DHT22;2860;54.284;10.158;2023-07-16T05:47:13;23.40;99.90
5675;DHT22;2860;54.284;10.158;2023-07-16T05:49:38;23.70;99.90
5675;DHT22;2860;54.284;10.158;2023-07-16T05:52:04;23.90;99.90
5675;DHT22;2860;54.284;10.158;2023-07-16T05:54:30;24.30;99.90
5675;DHT22;2860;54.284;10.158;2023-07-16T05:56:57;24.60;99.90
5675;DHT22;2860;54.284;10.158;2023-07-16T05:59:22;25.00;99.90
5675;DHT22;2860;54.284;10.158;2023-07-16T06:01:48;25.40;99.90
5675;DHT22;2860;54.284;10.158;2023-07-16T06:04:13;25.50;99.90
5675;DHT22;2860;54.284;10.158;2023-07-16T06:06:39;25.20;99.90
5675;DHT22;2860;54.284;10.158;2023-07-16T06:09:05;25.40;99.90
5675;DHT22;2860;54.284;10.158;2023-07-16T06:11:30;25.50;99.90
5675;DHT22;2860;54.284;10.158;2023-07-16T06:13:56;25.40;99.90
5675;DHT22;2860;54.284;10.158;2023-07-16T06:16:21;25.40;99.90
5675;DHT22;2860;54.284;10.158;2023-07-16T06:18:47;25.30;99.90
5675;DHT22;2860;54.284;10.158;2023-07-16T06:21:12;25.30;99.90
5675;DHT22;2860;54.284;10.158;2023-07-16T06:23:39;25.30;99.90
5675;DHT22;2860;54.284;10.158;2023-07-16T06:26:05;25.30;99.90
5675;DHT22;2860;54.284;10.158;2023-07-16T06:28:30;25.20;99.90
5675;DHT22;2860;54.284;10.158;2023-07-16T06:30:59;25.20;99.90
5675;DHT22;2860;54.284;10.158;2023-07-16T06:33:24;25.10;99.90
5675;DHT22;2860;54.284;10.158;2023-07-16T06:35:50;25.00;99.90
5675;DHT22;2860;54.284;10.158;2023-07-16T06:38:16;24.70;99.90
5675;DHT22;2860;54.284;10.158;2023-07-16T06:40:49;24.40;99.90
5675;DHT22;2860;54.284;10.158;2023-07-16T06:43:16;24.10;99.90
5675;DHT22;2860;54.284;10.158;2023-07-16T06:45:42;23.80;99.90
5675;DHT22;2860;54.284;10.158;2023-07-16T06:48:07;23.50;99.90
5675;DHT22;2860;54.284;10.158;2023-07-16T06:50:33;23.40;99.90
5675;DHT22;2860;54.284;10.158;2023-07-16T06:52:58;23.10;99.90
5675;DHT22;2860;54.284;10.158;2023-07-16T06:55:24;22.80;99.90
5675;DHT22;2860;54.284;10.158;2023-07-16T06:57:49;22.60;99.90
5675;DHT22;2860;54.284;10.158;2023-07-16T07:00:15;22.50;99.90
5675;DHT22;2860;54.284;10.158;2023-07-16T07:02:40;22.40;99.90
5675;DHT22;2860;54.284;10.158;2023-07-16T07:05:06;22.30;99.90
5675;DHT22;2860;54.284;10.158;2023-07-16T07:07:32;22.10;99.90
5675;DHT22;2860;54.284;10.158;2023-07-16T07:09:57;22.10;99.90
5675;DHT22;2860;54.284;10.158;2023-07-16T07:12:23;22.00;99.90
5675;DHT22;2860;54.284;10.158;2023-07-16T07:14:48;22.00;99.90
5675;DHT22;2860;54.284;10.158;2023-07-16T07:17:14;21.90;99.90
5675;DHT22;2860;54.284;10.158;2023-07-16T07:19:41;21.90;99.90
5675;DHT22;2860;54.284;10.158;2023-07-16T07:22:07;21.80;99.90
5675;DHT22;2860;54.284;10.158;2023-07-16T07:24:32;21.90;99.90
5675;DHT22;2860;54.284;10.158;2023-07-16T07:26:58;21.90;99.90
5675;DHT22;2860;54.284;10.158;2023-07-16T07:29:23;21.80;99.90
5675;DHT22;2860;54.284;10.158;2023-07-16T07:31:49;21.70;99.90
5675;DHT22;2860;54.284;10.158;2023-07-16T07:34:14;21.70;99.90
5675;DHT22;2860;54.284;10.158;2023-07-16T07:36:40;21.70;99.90
5675;DHT22;2860;54.284;10.158;2023-07-16T07:39:05;21.90;99.90
5675;DHT22;2860;54.284;10.158;2023-07-16T07:41:31;21.90;99.90
5675;DHT22;2860;54.284;10.158;2023-07-16T07:43:56;22.00;99.90
5675;DHT22;2860;54.284;10.158;2023-07-16T07:46:22;22.10;99.90
5675;DHT22;2860;54.284;10.158;2023-07-16T07:48:48;22.30;99.90
5675;DHT22;2860;54.284;10.158;2023-07-16T07:51:13;22.40;99.90
5675;DHT22;2860;54.284;10.158;2023-07-16T07:53:39;22.70;99.90
5675;DHT22;2860;54.284;10.158;2023-07-16T07:56:04;22.80;99.90
5675;DHT22;2860;54.284;10.158;2023-07-16T07:58:30;22.80;99.90
5675;DHT22;2860;54.284;10.158;2023-07-16T08:00:55;22.50;99.90
5675;DHT22;2860;54.284;10.158;2023-07-16T08:03:21;22.30;99.90
5675;DHT22;2860;54.284;10.158;2023-07-16T08:05:49;22.30;99.90
5675;DHT22;2860;54.284;10.158;2023-07-16T08:08:15;22.30;99.90
5675;DHT22;2860;54.284;10.158;2023-07-16T08:10:41;22.20;99.90
5675;DHT22;2860;54.284;10.158;2023-07-16T08:13:07;22.20;99.90
5675;DHT22;2860;54.284;10.158;2023-07-16T08:15:32;22.40;99.90
5675;DHT22;2860;54.284;10.158;2023-07-16T08:17:58;22.60;99.90
5675;DHT22;2860;54.284;10.158;2023-07-16T08:20:25;22.70;99.90
5675;DHT22;2860;54.284;10.158;2023-07-16T08:22:51;22.80;99.90
5675;DHT22;2860;54.284;10.158;2023-07-16T08:25:16;22.90;99.90
5675;DHT22;2860;54.284;10.158;2023-07-16T08:27:42;23.20;99.90
5675;DHT22;2860;54.284;10.158;2023-07-16T08:30:14;23.50;99.90
5675;DHT22;2860;54.284;10.158;2023-07-16T08:32:39;23.70;99.90
5675;DHT22;2860;54.284;10.158;2023-07-16T08:35:05;23.90;99.90
5675;DHT22;2860;54.284;10.158;2023-07-16T08:37:31;23.80;99.90
5675;DHT22;2860;54.284;10.158;2023-07-16T08:39:57;23.70;99.90
5675;DHT22;2860;54.284;10.158;2023-07-16T08:42:29;23.50;99.90
5675;DHT22;2860;54.284;10.158;2023-07-16T08:45:14;23.20;99.90
5675;DHT22;2860;54.284;10.158;2023-07-16T08:47:40;23.10;99.90
5675;DHT22;2860;54.284;10.158;2023-07-16T08:50:06;22.90;99.90
5675;DHT22;2860;54.284;10.158;2023-07-16T08:52:32;22.90;99.90
5675;DHT22;2860;54.284;10.158;2023-07-16T08:54:57;22.90;99.90
5675;DHT22;2860;54.284;10.158;2023-07-16T08:57:23;23.20;99.90
5675;DHT22;2860;54.284;10.158;2023-07-16T08:59:50;23.50;99.90
5675;DHT22;2860;54.284;10.158;2023-07-16T09:02:17;23.80;99.90
5675;DHT22;2860;54.284;10.158;2023-07-16T09:04:44;23.90;99.90
5675;DHT22;2860;54.284;10.158;2023-07-16T09:07:09;24.00;99.90
5675;DHT22;2860;54.284;10.158;2023-07-16T09:09:34;24.10;99.90
5675;DHT22;2860;54.284;10.158;2023-07-16T09:12:01;24.20;99.90
5675;DHT22;2860;54.284;10.158;2023-07-16T09:14:27;24.10;99.90
5675;DHT22;2860;54.284;10.158;2023-07-16T09:16:53;24.00;99.90
5675;DHT22;2860;54.284;10.158;2023-07-16T09:19:19;24.00;99.90
5675;DHT22;2860;54.284;10.158;2023-07-16T09:21:48;23.90;99.90
5675;DHT22;2860;54.284;10.158;2023-07-16T09:24:14;23.80;99.90
5675;DHT22;2860;54.284;10.158;2023-07-16T09:26:54;23.80;99.90
5675;DHT22;2860;54.284;10.158;2023-07-16T09:29:20;23.90;99.90
5675;DHT22;2860;54.284;10.158;2023-07-16T09:31:59;23.90;99.90
5675;DHT22;2860;54.284;10.158;2023-07-16T09:34:29;24.00;99.90
5675;DHT22;2860;54.284;10.158;2023-07-16T09:36:56;24.00;99.90
5675;DHT22;2860;54.284;10.158;2023-07-16T09:39:22;23.80;99.90
5675;DHT22;2860;54.284;10.158;2023-07-16T09:41:49;23.70;99.90
5675;DHT22;2860;54.284;10.158;2023-07-16T09:44:15;23.50;99.90
5675;DHT22;2860;54.284;10.158;2023-07-16T09:46:42;23.30;99.90
5675;DHT22;2860;54.284;10.158;2023-07-16T09:49:08;23.20;99.90
5675;DHT22;2860;54.284;10.158;2023-07-16T09:51:36;23.60;99.90
5675;DHT22;2860;54.284;10.158;2023-07-16T09:54:02;23.90;99.90
5675;DHT22;2860;54.284;10.158;2023-07-16T09:56:34;24.00;99.90
5675;DHT22;2860;54.284;10.158;2023-07-16T09:59:01;23.90;99.90
5675;DHT22;2860;54.284;10.158;2023-07-16T10:01:28;24.30;99.90
5675;DHT22;2860;54.284;10.158;2023-07-16T10:03:54;24.80;99.90
5675;DHT22;2860;54.284;10.158;2023-07-16T10:06:20;25.10;99.90
5675;DHT22;2860;54.284;10.158;2023-07-16T10:08:50;25.60;99.90
5675;DHT22;2860;54.284;10.158;2023-07-16T10:11:17;26.10;99.90
5675;DHT22;2860;54.284;10.158;2023-07-16T10:13:43;26.20;99.90
5675;DHT22;2860;54.284;10.158;2023-07-16T10:16:20;26.10;99.90
5675;DHT22;2860;54.284;10.158;2023-07-16T10:18:53;25.80;99.90
5675;DHT22;2860;54.284;10.158;2023-07-16T10:21:23;25.30;99.90
5675;DHT22;2860;54.284;10.158;2023-07-16T10:23:57;25.10;99.90
5675;DHT22;2860;54.284;10.158;2023-07-16T10:26:28;24.80;99.90
5675;DHT22;2860;54.284;10.158;2023-07-16T10:28:54;24.70;99.90
5675;DHT22;2860;54.284;10.158;2023-07-16T10:31:22;24.70;99.90
5675;DHT22;2860;54.284;10.158;2023-07-16T10:33:59;24.70;99.90
5675;DHT22;2860;54.284;10.158;2023-07-16T10:36:25;24.40;99.90
5675;DHT22;2860;54.284;10.158;2023-07-16T10:38:51;24.10;99.90
5675;DHT22;2860;54.284;10.158;2023-07-16T10:41:17;24.20;99.90
5675;DHT22;2860;54.284;10.158;2023-07-16T10:43:43;24.30;99.90
5675;DHT22;2860;54.284;10.158;2023-07-16T10:46:09;24.10;99.90
5675;DHT22;2860;54.284;10.158;2023-07-16T10:48:35;24.00;99.90
5675;DHT22;2860;54.284;10.158;2023-07-16T10:51:00;24.10;99.90
5675;DHT22;2860;54.284;10.158;2023-07-16T10:53:26;23.90;99.90
5675;DHT22;2860;54.284;10.158;2023-07-16T10:55:51;23.50;99.90
5675;DHT22;2860;54.284;10.158;2023-07-16T10:58:17;23.20;99.90
5675;DHT22;2860;54.284;10.158;2023-07-16T11:00:44;23.20;99.90
5675;DHT22;2860;54.284;10.158;2023-07-16T11:03:10;23.50;99.90
5675;DHT22;2860;54.284;10.158;2023-07-16T11:05:36;23.90;99.90
5675;DHT22;2860;54.284;10.158;2023-07-16T11:08:01;24.10;99.90
5675;DHT22;2860;54.284;10.158;2023-07-16T11:10:30;24.20;99.90
5675;DHT22;2860;54.284;10.158;2023-07-16T11:12:56;24.20;99.90
5675;DHT22;2860;54.284;10.158;2023-07-16T11:15:34;24.10;99.90
5675;DHT22;2860;54.284;10.158;2023-07-16T11:18:01;24.00;99.90
5675;DHT22;2860;54.284;10.158;2023-07-16T11:20:26;24.00;99.90
5675;DHT22;2860;54.284;10.158;2023-07-16T11:22:52;24.00;99.90
5675;DHT22;2860;54.284;10.158;2023-07-16T11:25:18;23.90;99.90
5675;DHT22;2860;54.284;10.158;2023-07-16T11:27:45;23.90;99.90
5675;DHT22;2860;54.284;10.158;2023-07-16T11:30:10;23.80;99.90
5675;DHT22;2860;54.284;10.158;2023-07-16T11:32:46;23.60;99.90
5675;DHT22;2860;54.284;10.158;2023-07-16T11:35:21;23.20;99.90
5675;DHT22;2860;54.284;10.158;2023-07-16T11:37:47;22.90;99.90
5675;DHT22;2860;54.284;10.158;2023-07-16T11:40:18;23.00;99.90
5675;DHT22;2860;54.284;10.158;2023-07-16T11:42:44;23.10;99.90
5675;DHT22;2860;54.284;10.158;2023-07-16T11:45:17;23.20;99.90
5675;DHT22;2860;54.284;10.158;2023-07-16T11:47:43;23.20;99.90
5675;DHT22;2860;54.284;10.158;2023-07-16T11:50:09;23.40;99.90
5675;DHT22;2860;54.284;10.158;2023-07-16T11:52:35;23.70;99.90
5675;DHT22;2860;54.284;10.158;2023-07-16T11:55:00;23.90;99.90
5675;DHT22;2860;54.284;10.158;2023-07-16T11:57:27;24.20;99.90
5675;DHT22;2860;54.284;10.158;2023-07-16T11:59:52;24.50;99.90
5675;DHT22;2860;54.284;10.158;2023-07-16T12:02:18;24.80;99.90
5675;DHT22;2860;54.284;10.158;2023-07-16T12:04:44;24.90;99.90
5675;DHT22;2860;54.284;10.158;2023-07-16T12:07:10;25.00;99.90
5675;DHT22;2860;54.284;10.158;2023-07-16T12:09:36;25.10;99.90
5675;DHT22;2860;54.284;10.158;2023-07-16T12:12:01;25.10;99.90
5675;DHT22;2860;54.284;10.158;2023-07-16T12:14:27;25.10;99.90
5675;DHT22;2860;54.284;10.158;2023-07-16T12:16:53;25.10;99.90
5675;DHT22;2860;54.284;10.158;2023-07-16T12:19:18;24.90;99.90
5675;DHT22;2860;54.284;10.158;2023-07-16T12:21:44;24.50;99.90
5675;DHT22;2860;54.284;10.158;2023-07-16T12:24:10;24.30;99.90
5675;DHT22;2860;54.284;10.158;2023-07-16T12:26:36;24.40;99.90
5675;DHT22;2860;54.284;10.158;2023-07-16T12:29:02;24.50;99.90
5675;DHT22;2860;54.284;10.158;2023-07-16T12:31:33;24.50;99.90
5675;DHT22;2860;54.284;10.158;2023-07-16T12:34:00;24.60;99.90
5675;DHT22;2860;54.284;10.158;2023-07-16T12:36:29;24.80;99.90
5675;DHT22;2860;54.284;10.158;2023-07-16T12:38:55;25.20;99.90
5675;DHT22;2860;54.284;10.158;2023-07-16T12:41:20;25.60;99.90
5675;DHT22;2860;54.284;10.158;2023-07-16T12:43:46;25.90;99.90
5675;DHT22;2860;54.284;10.158;2023-07-16T12:46:12;25.80;99.90
5675;DHT22;2860;54.284;10.158;2023-07-16T12:48:38;25.70;99.90
5675;DHT22;2860;54.284;10.158;2023-07-16T12:51:03;25.40;99.90
5675;DHT22;2860;54.284;10.158;2023-07-16T12:53:29;25.30;99.90
5675;DHT22;2860;54.284;10.158;2023-07-16T12:55:54;25.10;99.90
5675;DHT22;2860;54.284;10.158;2023-07-16T12:58:20;25.00;99.90
5675;DHT22;2860;54.284;10.158;2023-07-16T13:00:46;25.00;99.90
5675;DHT22;2860;54.284;10.158;2023-07-16T13:03:11;25.20;99.90
5675;DHT22;2860;54.284;10.158;2023-07-16T13:05:40;25.50;99.90
5675;DHT22;2860;54.284;10.158;2023-07-16T13:08:05;25.60;99.90
5675;DHT22;2860;54.284;10.158;2023-07-16T13:10:31;25.70;99.90
5675;DHT22;2860;54.284;10.158;2023-07-16T13:12:56;25.50;99.90
5675;DHT22;2860;54.284;10.158;2023-07-16T13:15:22;25.40;99.90
5675;DHT22;2860;54.284;10.158;2023-07-16T13:17:48;25.40;99.90
5675;DHT22;2860;54.284;10.158;2023-07-16T13:20:14;25.60;99.90
5675;DHT22;2860;54.284;10.158;2023-07-16T13:22:39;25.70;99.90
5675;DHT22;2860;54.284;10.158;2023-07-16T13:25:05;25.70;99.90
5675;DHT22;2860;54.284;10.158;2023-07-16T13:27:31;25.80;99.90
5675;DHT22;2860;54.284;10.158;2023-07-16T13:29:57;26.00;99.90
5675;DHT22;2860;54.284;10.158;2023-07-16T13:32:22;26.20;99.90
5675;DHT22;2860;54.284;10.158;2023-07-16T13:34:48;26.30;99.90
5675;DHT22;2860;54.284;10.158;2023-07-16T13:37:14;26.10;99.90
5675;DHT22;2860;54.284;10.158;2023-07-16T13:39:40;26.20;99.90
5675;DHT22;2860;54.284;10.158;2023-07-16T13:42:06;26.20;99.90
5675;DHT22;2860;54.284;10.158;2023-07-16T13:44:33;26.00;99.90
5675;DHT22;2860;54.284;10.158;2023-07-16T13:46:58;25.90;99.90
5675;DHT22;2860;54.284;10.158;2023-07-16T13:49:24;25.70;99.90
5675;DHT22;2860;54.284;10.158;2023-07-16T13:51:49;25.50;99.90
5675;DHT22;2860;54.284;10.158;2023-07-16T13:54:15;25.50;99.90
5675;DHT22;2860;54.284;10.158;2023-07-16T13:56:40;25.50;99.90
5675;DHT22;2860;54.284;10.158;2023-07-16T13:59:06;25.50;99.90
5675;DHT22;2860;54.284;10.158;2023-07-16T14:01:32;25.60;99.90
5675;DHT22;2860;54.284;10.158;2023-07-16T14:03:57;25.60;99.90
5675;DHT22;2860;54.284;10.158;2023-07-16T14:06:23;25.60;99.90
5675;DHT22;2860;54.284;10.158;2023-07-16T14:08:48;25.60;99.90
5675;DHT22;2860;54.284;10.158;2023-07-16T14:11:14;25.50;99.90
5675;DHT22;2860;54.284;10.158;2023-07-16T14:13:43;25.50;99.90
5675;DHT22;2860;54.284;10.158;2023-07-16T14:16:09;25.70;99.90
5675;DHT22;2860;54.284;10.158;2023-07-16T14:18:34;25.70;99.90
5675;DHT22;2860;54.284;10.158;2023-07-16T14:21:00;25.40;99.90
5675;DHT22;2860;54.284;10.158;2023-07-16T14:23:28;25.30;99.90
5675;DHT22;2860;54.284;10.158;2023-07-16T14:25:53;25.10;99.90
5675;DHT22;2860;54.284;10.158;2023-07-16T14:28:19;25.00;99.90
5675;DHT22;2860;54.284;10.158;2023-07-16T14:30:44;24.80;99.90
5675;DHT22;2860;54.284;10.158;2023-07-16T14:33:10;24.60;99.90
5675;DHT22;2860;54.284;10.158;2023-07-16T14:35:35;24.90;99.90
5675;DHT22;2860;54.284;10.158;2023-07-16T14:38:01;25.30;99.90
5675;DHT22;2860;54.284;10.158;2023-07-16T14:40:26;25.60;99.90
5675;DHT22;2860;54.284;10.158;2023-07-16T14:42:52;25.80;99.90
5675;DHT22;2860;54.284;10.158;2023-07-16T14:45:17;25.70;99.90
5675;DHT22;2860;54.284;10.158;2023-07-16T14:47:43;25.30;99.90
5675;DHT22;2860;54.284;10.158;2023-07-16T14:50:09;24.90;99.90
5675;DHT22;2860;54.284;10.158;2023-07-16T14:52:34;24.70;99.90
5675;DHT22;2860;54.284;10.158;2023-07-16T14:55:01;24.60;99.90
5675;DHT22;2860;54.284;10.158;2023-07-16T14:57:29;24.60;99.90
5675;DHT22;2860;54.284;10.158;2023-07-16T14:59:55;24.60;99.90
5675;DHT22;2860;54.284;10.158;2023-07-16T15:02:21;24.40;99.90
5675;DHT22;2860;54.284;10.158;2023-07-16T15:04:46;24.40;99.90
5675;DHT22;2860;54.284;10.158;2023-07-16T15:07:12;24.40;99.90
5675;DHT22;2860;54.284;10.158;2023-07-16T15:09:37;24.60;99.90
5675;DHT22;2860;54.284;10.158;2023-07-16T15:12:04;24.80;99.90
5675;DHT22;2860;54.284;10.158;2023-07-16T15:14:30;24.90;99.90
5675;DHT22;2860;54.284;10.158;2023-07-16T15:16:55;24.70;99.90
5675;DHT22;2860;54.284;10.158;2023-07-16T15:19:21;24.70;99.90
5675;DHT22;2860;54.284;10.158;2023-07-16T15:21:46;24.80;99.90
5675;DHT22;2860;54.284;10.158;2023-07-16T15:24:12;24.70;99.90
5675;DHT22;2860;54.284;10.158;2023-07-16T15:26:38;24.60;99.90
5675;DHT22;2860;54.284;10.158;2023-07-16T15:29:03;24.50;99.90
5675;DHT22;2860;54.284;10.158;2023-07-16T15:31:29;24.40;99.90
5675;DHT22;2860;54.284;10.158;2023-07-16T15:33:55;24.60;99.90
5675;DHT22;2860;54.284;10.158;2023-07-16T15:36:22;24.90;99.90
5675;DHT22;2860;54.284;10.158;2023-07-16T15:38:47;24.90;99.90
5675;DHT22;2860;54.284;10.158;2023-07-16T15:41:17;24.80;99.90
5675;DHT22;2860;54.284;10.158;2023-07-16T15:43:45;24.90;99.90